Vistas del Oceano, Puerto Rico
Current Conditions -  °F | °C
As of 1:53 PM on Sunday 25 Jan 2015 (Local Time) from TJNR Reporting Station
Overcast Overcast  
Wind Chill: 81°   Ceiling: 9500
Heat Index: 84°   Visibility: 10mi
Dew Point: 69°   Wind: 8mph
Humidity: 67%   Direction: 110°ESE
Pressure: 30.02"   Gusts: NA
Location:  18.2022°N, 65.86°W
Report Text: TJNR 251753Z AUTO 11007KT 10SM SCT065 OVC095 27/21 A3002 RMK AO2 SLP164 T02720206 10294 20244 58021 $
Loading
Personal Weather Stations






























Interactive Weather Map New forecast layout! Learn more

10-Day Weather Forecast

Advertisements
Track Severe Weather on mobile